createdAt,value
2018-09-26T00:00:10.728Z,10.48
2018-09-26T00:01:10.682Z,10.49
2018-09-26T00:02:10.625Z,10.48
2018-09-26T00:03:10.860Z,10.48
2018-09-26T00:04:11.154Z,10.49
2018-09-26T00:05:10.899Z,10.51
2018-09-26T00:06:10.804Z,10.51
2018-09-26T00:07:10.799Z,10.48
2018-09-26T00:08:10.612Z,10.48
2018-09-26T00:09:10.823Z,10.48
2018-09-26T00:10:10.794Z,10.45
2018-09-26T00:11:10.809Z,10.45
2018-09-26T00:12:10.927Z,10.44
2018-09-26T00:13:10.773Z,10.47
2018-09-26T00:14:10.656Z,10.44
2018-09-26T00:15:10.709Z,10.47
2018-09-26T00:16:10.762Z,10.42
2018-09-26T00:17:10.769Z,10.41
2018-09-26T00:18:11.009Z,10.41
2018-09-26T00:19:10.801Z,10.42
2018-09-26T00:20:10.601Z,10.38
2018-09-26T00:21:10.786Z,10.41
2018-09-26T00:22:10.803Z,10.41
2018-09-26T00:23:10.715Z,10.41
2018-09-26T00:24:10.721Z,10.38
2018-09-26T00:25:10.597Z,10.41
2018-09-26T00:26:10.803Z,10.41
2018-09-26T00:27:10.917Z,10.38
2018-09-26T00:28:10.658Z,10.37
2018-09-26T00:29:10.869Z,10.37
2018-09-26T00:30:10.952Z,10.34
2018-09-26T00:31:10.907Z,10.35
2018-09-26T00:32:10.879Z,10.37
2018-09-26T00:33:10.796Z,10.34
2018-09-26T00:34:10.618Z,10.35
2018-09-26T00:35:11.145Z,10.34
2018-09-26T00:36:11.749Z,10.32
2018-09-26T00:37:10.739Z,10.32
2018-09-26T00:38:10.946Z,10.34
2018-09-26T00:39:10.638Z,10.3
2018-09-26T00:40:10.761Z,10.3
2018-09-26T00:41:10.899Z,10.31
2018-09-26T00:42:11.054Z,10.3
2018-09-26T00:43:10.725Z,10.28
2018-09-26T00:44:10.715Z,10.25
2018-09-26T00:45:10.714Z,10.25
2018-09-26T00:46:10.731Z,10.24
2018-09-26T00:47:10.829Z,10.2
2018-09-26T00:48:10.718Z,10.19
2018-09-26T00:49:10.563Z,10.19
2018-09-26T00:50:10.569Z,10.17
2018-09-26T00:51:10.603Z,10.13
2018-09-26T00:52:10.642Z,10.1
2018-09-26T00:53:10.721Z,10.06
2018-09-26T00:54:10.737Z,10.06
2018-09-26T00:55:10.703Z,10.03
2018-09-26T00:56:10.775Z,10.07
2018-09-26T00:57:10.726Z,10.06
2018-09-26T00:58:10.856Z,10.03
2018-09-26T00:59:10.538Z,9.99
2018-09-26T01:00:10.770Z,10
2018-09-26T01:01:10.589Z,9.96
2018-09-26T01:02:10.573Z,9.97
2018-09-26T01:03:10.716Z,9.97
2018-09-26T01:04:10.570Z,9.99
2018-09-26T01:05:10.634Z,10
2018-09-26T01:06:11.015Z,10.02
2018-09-26T01:07:10.812Z,10.02
2018-09-26T01:08:10.577Z,10.02
2018-09-26T01:09:10.728Z,10
2018-09-26T01:10:10.650Z,10
2018-09-26T01:11:10.678Z,10.02
2018-09-26T01:12:10.788Z,10.02
2018-09-26T01:13:10.690Z,9.99
2018-09-26T01:14:10.758Z,10
2018-09-26T01:15:10.776Z,10
2018-09-26T01:16:10.536Z,10
2018-09-26T01:17:10.595Z,9.99
2018-09-26T01:18:10.521Z,10
2018-09-26T01:19:10.803Z,9.94
2018-09-26T01:20:10.813Z,9.93
2018-09-26T01:21:10.693Z,9.94
2018-09-26T01:22:10.712Z,9.96
2018-09-26T01:23:10.698Z,9.92
2018-09-26T01:24:10.856Z,9.94
2018-09-26T01:25:10.708Z,9.94
2018-09-26T01:26:10.550Z,9.93
2018-09-26T01:27:10.715Z,9.92
2018-09-26T01:28:10.549Z,9.94
2018-09-26T01:29:10.669Z,9.93
2018-09-26T01:30:10.543Z,9.93
2018-09-26T01:31:10.746Z,9.93
2018-09-26T01:32:10.656Z,9.92
2018-09-26T01:33:10.660Z,9.9
2018-09-26T01:34:10.694Z,9.9
2018-09-26T01:35:10.764Z,9.88
2018-09-26T01:36:10.720Z,9.85
2018-09-26T01:37:10.658Z,9.86
2018-09-26T01:38:10.717Z,9.85
2018-09-26T01:39:10.587Z,9.83
2018-09-26T01:40:10.611Z,9.83
2018-09-26T01:41:10.525Z,9.85
2018-09-26T01:42:10.715Z,9.81
2018-09-26T01:43:10.551Z,9.78
2018-09-26T01:44:10.776Z,9.79
2018-09-26T01:45:10.712Z,9.79
2018-09-26T01:46:10.635Z,9.75
2018-09-26T01:47:10.689Z,9.76
2018-09-26T01:48:10.958Z,9.73
2018-09-26T01:49:10.534Z,9.72
2018-09-26T01:50:10.766Z,9.75
2018-09-26T01:51:10.856Z,9.75
2018-09-26T01:52:10.955Z,9.76
2018-09-26T01:53:10.563Z,9.75
2018-09-26T01:54:10.509Z,9.75
2018-09-26T01:55:10.652Z,9.73
2018-09-26T01:56:10.790Z,9.7
2018-09-26T01:57:10.997Z,9.68
2018-09-26T01:58:10.533Z,9.66
2018-09-26T01:59:10.700Z,9.62
2018-09-26T02:00:10.445Z,9.61
2018-09-26T02:01:10.632Z,9.59
2018-09-26T02:02:10.623Z,9.61
2018-09-26T02:03:10.592Z,9.61
2018-09-26T02:04:10.454Z,9.57
2018-09-26T02:05:10.516Z,9.57
2018-09-26T02:06:10.485Z,9.58
2018-09-26T02:07:10.473Z,9.58
2018-09-26T02:08:10.632Z,9.57
2018-09-26T02:09:10.640Z,9.57
2018-09-26T02:10:10.616Z,9.52
2018-09-26T02:11:10.641Z,9.52
2018-09-26T02:12:10.617Z,9.55
2018-09-26T02:13:10.641Z,9.55
2018-09-26T02:14:10.469Z,9.57
2018-09-26T02:15:10.608Z,9.55
2018-09-26T02:16:10.472Z,9.51
2018-09-26T02:17:10.553Z,9.51
2018-09-26T02:18:10.630Z,9.54
2018-09-26T02:19:10.606Z,9.52
2018-09-26T02:20:10.628Z,9.52
2018-09-26T02:21:11.031Z,9.54
2018-09-26T02:22:10.616Z,9.55
2018-09-26T02:23:10.445Z,9.54
2018-09-26T02:24:10.821Z,9.54
2018-09-26T02:25:10.652Z,9.55
2018-09-26T02:26:10.645Z,9.49
2018-09-26T02:27:10.547Z,9.48
2018-09-26T02:28:10.670Z,9.47
2018-09-26T02:29:10.535Z,9.48
2018-09-26T02:30:10.598Z,9.48
2018-09-26T02:31:10.549Z,9.48
2018-09-26T02:32:10.760Z,9.47
2018-09-26T02:33:10.619Z,9.49
2018-09-26T02:34:10.823Z,9.44
2018-09-26T02:35:10.513Z,9.42
2018-09-26T02:36:10.610Z,9.44
2018-09-26T02:37:10.755Z,9.44
2018-09-26T02:38:10.639Z,9.41
2018-09-26T02:39:10.406Z,9.37
2018-09-26T02:40:10.403Z,9.34
2018-09-26T02:41:10.486Z,9.35
2018-09-26T02:42:10.556Z,9.35
2018-09-26T02:43:10.574Z,9.34
2018-09-26T02:44:10.736Z,9.33
2018-09-26T02:45:10.693Z,9.33
2018-09-26T02:46:10.650Z,9.35
2018-09-26T02:47:10.664Z,9.35
2018-09-26T02:48:10.655Z,9.34
2018-09-26T02:49:10.551Z,9.34
2018-09-26T02:50:11.009Z,9.34
2018-09-26T02:51:10.522Z,9.35
2018-09-26T02:52:10.667Z,9.31
2018-09-26T02:53:10.532Z,9.31
2018-09-26T02:54:10.582Z,9.33
2018-09-26T02:55:10.635Z,9.33
2018-09-26T02:56:10.439Z,9.31
2018-09-26T02:57:10.546Z,9.33
2018-09-26T02:58:10.555Z,9.34
2018-09-26T02:59:10.412Z,9.31
2018-09-26T03:00:10.632Z,9.37
2018-09-26T03:01:10.592Z,9.34
2018-09-26T03:02:10.616Z,9.34
2018-09-26T03:03:10.576Z,9.33
2018-09-26T03:04:10.606Z,9.33
2018-09-26T03:05:10.417Z,9.29
2018-09-26T03:06:10.458Z,9.29
2018-09-26T03:07:10.546Z,9.26
2018-09-26T03:08:10.621Z,9.26
2018-09-26T03:09:10.542Z,9.23
2018-09-26T03:10:10.545Z,9.2
2018-09-26T03:11:10.495Z,9.19
2018-09-26T03:12:10.506Z,9.16
2018-09-26T03:13:10.399Z,9.13
2018-09-26T03:14:10.709Z,9.14
2018-09-26T03:15:10.457Z,9.14
2018-09-26T03:16:10.562Z,9.13
2018-09-26T03:17:10.908Z,9.14
2018-09-26T03:18:11.184Z,9.13
2018-09-26T03:19:10.494Z,9.13
2018-09-26T03:20:10.468Z,9.1
2018-09-26T03:21:10.661Z,9.06
2018-09-26T03:22:10.506Z,9.06
2018-09-26T03:23:10.669Z,9.06
2018-09-26T03:24:10.542Z,9.06
2018-09-26T03:25:10.348Z,9.04
2018-09-26T03:26:10.607Z,9.07
2018-09-26T03:27:10.526Z,9.07
2018-09-26T03:28:10.514Z,9.06
2018-09-26T03:29:10.548Z,9.06
2018-09-26T03:30:10.694Z,9.06
2018-09-26T03:31:10.490Z,9.02
2018-09-26T03:32:10.519Z,9
2018-09-26T03:33:10.329Z,9.02
2018-09-26T03:34:10.808Z,9
2018-09-26T03:35:10.343Z,9.02
2018-09-26T03:36:10.552Z,9
2018-09-26T03:37:10.533Z,9.02
2018-09-26T03:38:10.374Z,8.95
2018-09-26T03:39:10.369Z,8.91
2018-09-26T03:40:10.495Z,8.86
2018-09-26T03:41:10.321Z,8.82
2018-09-26T03:42:10.314Z,8.79
2018-09-26T03:43:10.325Z,8.79
2018-09-26T03:44:10.483Z,8.75
2018-09-26T03:45:10.578Z,8.76
2018-09-26T03:46:10.916Z,8.74
2018-09-26T03:47:10.326Z,8.74
2018-09-26T03:48:10.653Z,8.76
2018-09-26T03:49:10.429Z,8.78
2018-09-26T03:50:10.469Z,8.75
2018-09-26T03:51:10.501Z,8.76
2018-09-26T03:52:10.464Z,8.76
2018-09-26T03:53:10.396Z,8.76
2018-09-26T03:54:10.429Z,8.79
2018-09-26T03:55:10.871Z,8.76
2018-09-26T03:56:10.475Z,8.76
2018-09-26T03:57:10.526Z,8.75
2018-09-26T03:58:10.506Z,8.78
2018-09-26T03:59:10.524Z,8.76
2018-09-26T04:00:10.611Z,8.75
2018-09-26T04:01:10.583Z,8.76
2018-09-26T04:02:10.312Z,8.76
2018-09-26T04:03:10.351Z,8.76
2018-09-26T04:04:10.471Z,8.75
2018-09-26T04:05:10.392Z,8.75
2018-09-26T04:06:10.427Z,8.72
2018-09-26T04:07:10.434Z,8.78
2018-09-26T04:08:10.348Z,8.75
2018-09-26T04:09:10.485Z,8.74
2018-09-26T04:10:10.506Z,8.74
2018-09-26T04:11:10.505Z,8.74
2018-09-26T04:12:10.532Z,8.75
2018-09-26T04:13:10.737Z,8.75
2018-09-26T04:14:10.519Z,8.75
2018-09-26T04:15:11.139Z,8.76
2018-09-26T04:16:10.501Z,8.76
2018-09-26T04:17:10.349Z,8.74
2018-09-26T04:18:10.516Z,8.75
2018-09-26T04:19:10.445Z,8.72
2018-09-26T04:20:10.540Z,8.72
2018-09-26T04:21:10.329Z,8.71
2018-09-26T04:22:10.493Z,8.75
2018-09-26T04:23:10.479Z,8.76
2018-09-26T04:24:10.402Z,8.75
2018-09-26T04:25:10.565Z,8.74
2018-09-26T04:26:10.750Z,8.76
2018-09-26T04:27:10.822Z,8.76
2018-09-26T04:28:10.383Z,8.8
2018-09-26T04:29:10.439Z,8.8
2018-09-26T04:30:10.400Z,8.79
2018-09-26T04:31:10.372Z,8.79
2018-09-26T04:32:10.488Z,8.8
2018-09-26T04:33:11.297Z,8.82
2018-09-26T04:34:10.425Z,8.83
2018-09-26T04:35:10.590Z,8.82
2018-09-26T04:36:10.732Z,8.85
2018-09-26T04:37:10.287Z,8.83
2018-09-26T04:38:10.470Z,8.85
2018-09-26T04:39:10.520Z,8.85
2018-09-26T04:40:10.397Z,8.85
2018-09-26T04:41:10.279Z,8.88
2018-09-26T04:42:10.527Z,8.86
2018-09-26T04:43:10.527Z,8.88
2018-09-26T04:44:10.275Z,8.83
2018-09-26T04:45:10.244Z,8.76
2018-09-26T04:46:10.378Z,8.75
2018-09-26T04:47:10.238Z,8.74
2018-09-26T04:48:10.376Z,8.76
2018-09-26T04:49:10.210Z,8.76
2018-09-26T04:50:10.384Z,8.76
2018-09-26T04:51:10.288Z,8.76
2018-09-26T04:52:10.204Z,8.78
2018-09-26T04:53:10.250Z,8.78
2018-09-26T04:54:10.452Z,8.75
2018-09-26T04:55:10.367Z,8.74
2018-09-26T04:56:10.649Z,8.72
2018-09-26T04:57:10.375Z,8.72
2018-09-26T04:58:10.480Z,8.69
2018-09-26T04:59:10.342Z,8.71
2018-09-26T05:00:10.364Z,8.71
2018-09-26T05:01:10.383Z,8.71
2018-09-26T05:02:10.212Z,8.69
2018-09-26T05:03:10.226Z,8.69
2018-09-26T05:04:10.192Z,8.65
2018-09-26T05:05:10.236Z,8.65
2018-09-26T05:06:10.548Z,8.65
2018-09-26T05:07:10.426Z,8.64
2018-09-26T05:08:10.629Z,8.62
2018-09-26T05:09:10.432Z,8.61
2018-09-26T05:10:10.374Z,8.64
2018-09-26T05:11:10.677Z,8.59
2018-09-26T05:12:10.391Z,8.58
2018-09-26T05:13:10.530Z,8.57
2018-09-26T05:14:10.400Z,8.58
2018-09-26T05:15:10.377Z,8.55
2018-09-26T05:16:10.452Z,8.55
2018-09-26T05:17:10.252Z,8.52
2018-09-26T05:18:10.317Z,8.54
2018-09-26T05:19:10.362Z,8.51
2018-09-26T05:20:10.291Z,8.51
2018-09-26T05:21:10.555Z,8.48
2018-09-26T05:22:10.361Z,8.47
2018-09-26T05:23:10.572Z,8.45
2018-09-26T05:24:10.358Z,8.45
2018-09-26T05:25:10.580Z,8.47
2018-09-26T05:26:10.478Z,8.45
2018-09-26T05:27:10.346Z,8.45
2018-09-26T05:28:10.181Z,8.43
2018-09-26T05:29:10.267Z,8.41
2018-09-26T05:30:10.424Z,8.43
2018-09-26T05:31:10.426Z,8.43
2018-09-26T05:32:10.521Z,8.41
2018-09-26T05:33:10.340Z,8.43
2018-09-26T05:34:10.337Z,8.41
2018-09-26T05:35:10.485Z,8.41
2018-09-26T05:36:10.316Z,8.43
2018-09-26T05:37:10.717Z,8.4
2018-09-26T05:38:10.158Z,8.45
2018-09-26T05:39:10.176Z,8.44
2018-09-26T05:40:10.779Z,8.43
2018-09-26T05:41:10.159Z,8.43
2018-09-26T05:42:10.295Z,8.45
2018-09-26T05:43:10.407Z,8.44
2018-09-26T05:44:10.418Z,8.44
2018-09-26T05:45:10.361Z,8.44
2018-09-26T05:46:10.470Z,8.48
2018-09-26T05:47:10.419Z,8.48
2018-09-26T05:48:10.400Z,8.51
2018-09-26T05:49:10.395Z,8.49
2018-09-26T05:50:10.298Z,8.47
2018-09-26T05:51:10.420Z,8.47
2018-09-26T05:52:10.152Z,8.49
2018-09-26T05:53:10.271Z,8.48
2018-09-26T05:54:10.443Z,8.49
2018-09-26T05:55:10.285Z,8.49
2018-09-26T05:56:10.570Z,8.49
2018-09-26T05:57:10.333Z,8.51
2018-09-26T05:58:10.164Z,8.51
2018-09-26T05:59:10.106Z,8.54
2018-09-26T06:00:10.424Z,8.58
2018-09-26T06:01:10.231Z,8.57
2018-09-26T06:02:10.294Z,8.58
2018-09-26T06:03:10.345Z,8.58
2018-09-26T06:04:10.200Z,8.61
2018-09-26T06:05:10.144Z,8.65
2018-09-26T06:06:10.264Z,8.65
2018-09-26T06:07:10.109Z,8.66
2018-09-26T06:08:10.318Z,8.69
2018-09-26T06:09:10.320Z,8.66
2018-09-26T06:10:10.455Z,8.65
2018-09-26T06:11:10.342Z,8.68
2018-09-26T06:12:10.270Z,8.68
2018-09-26T06:13:10.245Z,8.65
2018-09-26T06:14:10.272Z,8.62
2018-09-26T06:15:10.261Z,8.64
2018-09-26T06:16:10.127Z,8.66
2018-09-26T06:17:10.089Z,8.66
2018-09-26T06:18:10.249Z,8.68
2018-09-26T06:19:10.283Z,8.66
2018-09-26T06:20:10.293Z,8.66
2018-09-26T06:21:10.232Z,8.69
2018-09-26T06:22:10.260Z,8.72
2018-09-26T06:23:10.103Z,8.71
2018-09-26T06:24:10.259Z,8.71
2018-09-26T06:25:10.255Z,8.75
2018-09-26T06:26:10.363Z,8.69
2018-09-26T06:27:10.058Z,8.72
2018-09-26T06:28:11.619Z,8.71
2018-09-26T06:29:10.116Z,8.72
2018-09-26T06:30:10.060Z,8.75
2018-09-26T06:31:10.263Z,8.75
2018-09-26T06:32:10.099Z,8.75
2018-09-26T06:33:10.104Z,8.79
2018-09-26T06:34:10.347Z,8.8
2018-09-26T06:35:10.233Z,8.79
2018-09-26T06:36:10.131Z,8.82
2018-09-26T06:37:10.094Z,8.85
2018-09-26T06:38:10.141Z,8.86
2018-09-26T06:39:10.239Z,8.91
2018-09-26T06:40:10.207Z,8.89
2018-09-26T06:41:10.026Z,8.91
2018-09-26T06:42:10.235Z,8.93
2018-09-26T06:43:10.251Z,8.92
2018-09-26T06:44:10.078Z,8.92
2018-09-26T06:45:10.338Z,8.93
2018-09-26T06:46:10.238Z,8.89
2018-09-26T06:47:10.047Z,8.92
2018-09-26T06:48:10.377Z,8.95
2018-09-26T06:49:10.197Z,8.95
2018-09-26T06:50:10.185Z,8.99
2018-09-26T06:51:10.114Z,9.02
2018-09-26T06:52:10.245Z,9.07
2018-09-26T06:53:10.118Z,9.09
2018-09-26T06:54:10.542Z,9.1
2018-09-26T06:55:10.538Z,9.14
2018-09-26T06:56:10.693Z,9.14
2018-09-26T06:57:10.209Z,9.17
2018-09-26T06:58:10.241Z,9.19
2018-09-26T06:59:11.067Z,9.2
2018-09-26T07:00:10.242Z,9.23
2018-09-26T07:01:10.181Z,9.24
2018-09-26T07:02:10.038Z,9.27
2018-09-26T07:03:10.454Z,9.3
2018-09-26T07:04:10.123Z,9.33
2018-09-26T07:05:10.161Z,9.38
2018-09-26T07:06:10.578Z,9.38
2018-09-26T07:07:10.232Z,9.41
2018-09-26T07:08:10.053Z,9.42
2018-09-26T07:09:10.023Z,9.47
2018-09-26T07:10:10.093Z,9.48
2018-09-26T07:11:10.197Z,9.54
2018-09-26T07:12:10.355Z,9.55
2018-09-26T07:13:10.118Z,9.59
2018-09-26T07:14:10.215Z,9.63
2018-09-26T07:15:10.254Z,9.65
2018-09-26T07:16:10.182Z,9.72
2018-09-26T07:17:10.047Z,9.72
2018-09-26T07:18:10.095Z,9.76
2018-09-26T07:19:10.197Z,9.76
2018-09-26T07:20:10.006Z,9.78
2018-09-26T07:21:10.287Z,9.82
2018-09-26T07:22:10.318Z,9.85
2018-09-26T07:23:10.165Z,9.83
2018-09-26T07:24:10.231Z,9.86
2018-09-26T07:25:10.053Z,9.88
2018-09-26T07:26:10.155Z,9.9
2018-09-26T07:27:10.260Z,9.96
2018-09-26T07:28:10.252Z,9.97
2018-09-26T07:29:10.163Z,9.99
2018-09-26T07:30:10.157Z,10.03
2018-09-26T07:31:10.185Z,10.03
2018-09-26T07:32:10.288Z,10.06
2018-09-26T07:33:10.166Z,10.09
2018-09-26T07:34:09.997Z,10.1
2018-09-26T07:35:10.147Z,10.09
2018-09-26T07:36:10.142Z,10.14
2018-09-26T07:37:10.439Z,10.17
2018-09-26T07:38:09.995Z,10.17
2018-09-26T07:39:10.161Z,10.21
2018-09-26T07:40:10.019Z,10.24
2018-09-26T07:41:10.124Z,10.25
2018-09-26T07:42:09.972Z,10.27
2018-09-26T07:43:10.134Z,10.25
2018-09-26T07:44:10.171Z,10.27
2018-09-26T07:45:10.180Z,10.25
2018-09-26T07:46:09.998Z,10.28
2018-09-26T07:47:10.121Z,10.3
2018-09-26T07:48:10.161Z,10.28
2018-09-26T07:49:10.207Z,10.34
2018-09-26T07:50:10.149Z,10.37
2018-09-26T07:51:10.119Z,10.35
2018-09-26T07:52:09.981Z,10.39
2018-09-26T07:53:10.551Z,10.42
2018-09-26T07:54:10.157Z,10.42
2018-09-26T07:55:10.309Z,10.44
2018-09-26T07:56:10.331Z,10.45
2018-09-26T07:57:10.020Z,10.48
2018-09-26T07:58:10.186Z,10.52
2018-09-26T07:59:11.218Z,10.53
2018-09-26T08:00:10.053Z,10.55
2018-09-26T08:01:10.260Z,10.59
2018-09-26T08:02:10.219Z,10.64
2018-09-26T08:03:10.265Z,10.66
2018-09-26T08:04:10.277Z,10.64
2018-09-26T08:05:10.092Z,10.68
2018-09-26T08:06:10.120Z,10.68
2018-09-26T08:07:10.296Z,10.71
2018-09-26T08:08:10.318Z,10.71
2018-09-26T08:09:10.309Z,10.73
2018-09-26T08:10:10.263Z,10.8
2018-09-26T08:11:10.333Z,10.84
2018-09-26T08:12:10.160Z,10.89
2018-09-26T08:13:09.960Z,10.94
2018-09-26T08:14:09.996Z,10.99
2018-09-26T08:15:10.086Z,11.01
2018-09-26T08:16:10.161Z,11.01
2018-09-26T08:17:10.009Z,11.01
2018-09-26T08:18:10.325Z,11.06
2018-09-26T08:19:10.114Z,11.1
2018-09-26T08:20:10.182Z,11.14
2018-09-26T08:21:10.151Z,11.14
2018-09-26T08:22:10.160Z,11.15
2018-09-26T08:23:10.008Z,11.17
2018-09-26T08:24:10.756Z,11.17
2018-09-26T08:25:09.961Z,11.17
2018-09-26T08:26:10.057Z,11.14
2018-09-26T08:27:09.990Z,11.17
2018-09-26T08:28:10.351Z,11.15
2018-09-26T08:29:10.083Z,11.2
2018-09-26T08:30:11.344Z,11.22
2018-09-26T08:31:10.066Z,11.28
2018-09-26T08:32:09.971Z,11.35
2018-09-26T08:33:10.140Z,11.39
2018-09-26T08:34:10.218Z,11.41
2018-09-26T08:35:10.293Z,11.47
2018-09-26T08:36:10.153Z,11.48
2018-09-26T08:37:10.116Z,11.51
2018-09-26T08:38:10.116Z,11.55
2018-09-26T08:39:10.009Z,11.58
2018-09-26T08:40:10.132Z,11.61
2018-09-26T08:41:09.986Z,11.66
2018-09-26T08:42:10.149Z,11.7
2018-09-26T08:43:10.075Z,11.77
2018-09-26T08:44:10.109Z,11.83
2018-09-26T08:45:10.068Z,11.82
2018-09-26T08:46:09.990Z,11.89
2018-09-26T08:47:09.996Z,11.93
2018-09-26T08:48:10.170Z,11.98
2018-09-26T08:49:10.200Z,12.07
2018-09-26T08:50:09.860Z,12.08
2018-09-26T08:51:10.059Z,12.05
2018-09-26T08:52:10.046Z,11.98
2018-09-26T08:53:10.236Z,12
2018-09-26T08:54:10.080Z,11.98
2018-09-26T08:55:10.025Z,12.01
2018-09-26T08:56:10.036Z,12.03
2018-09-26T08:57:10.234Z,12.01
2018-09-26T08:58:09.972Z,12.05
2018-09-26T08:59:10.041Z,12.07
2018-09-26T09:00:10.093Z,12.16
2018-09-26T09:01:09.839Z,12.23
2018-09-26T09:02:09.875Z,12.28
2018-09-26T09:03:10.028Z,12.34
2018-09-26T09:04:09.885Z,12.38
2018-09-26T09:05:09.943Z,12.45
2018-09-26T09:06:10.095Z,12.48
2018-09-26T09:07:09.851Z,12.46
2018-09-26T09:08:09.875Z,12.52
2018-09-26T09:09:10.028Z,12.6
2018-09-26T09:10:09.957Z,12.72
2018-09-26T09:11:10.038Z,12.74
2018-09-26T09:12:10.237Z,12.77
2018-09-26T09:13:10.540Z,12.83
2018-09-26T09:14:10.215Z,12.94
2018-09-26T09:15:10.261Z,12.97
2018-09-26T09:16:10.701Z,12.99
2018-09-26T09:17:10.169Z,12.93
2018-09-26T09:18:10.272Z,12.99
2018-09-26T09:19:11.320Z,13.06
2018-09-26T09:20:10.363Z,13.08
2018-09-26T09:21:10.295Z,13.08
2018-09-26T09:22:10.304Z,13.14
2018-09-26T09:23:10.120Z,13.17
2018-09-26T09:24:10.230Z,13.24
2018-09-26T09:25:10.224Z,13.27
2018-09-26T09:26:10.483Z,13.34
2018-09-26T09:27:10.376Z,13.38
2018-09-26T09:28:10.134Z,13.34
2018-09-26T09:29:10.266Z,13.39
2018-09-26T09:30:10.256Z,13.31
2018-09-26T09:31:09.942Z,13.39
2018-09-26T09:32:10.574Z,13.45
2018-09-26T09:33:10.178Z,13.52
2018-09-26T09:34:10.501Z,13.55
2018-09-26T09:35:09.831Z,13.55
2018-09-26T09:36:10.179Z,13.56
2018-09-26T09:37:10.089Z,13.53
2018-09-26T09:38:10.107Z,13.45
2018-09-26T09:39:10.002Z,13.38
2018-09-26T09:40:10.142Z,13.38
2018-09-26T09:41:10.242Z,13.43
2018-09-26T09:42:11.181Z,13.55
2018-09-26T09:43:10.234Z,13.57
2018-09-26T09:44:10.457Z,13.62
2018-09-26T09:45:10.175Z,13.62
2018-09-26T09:46:09.961Z,13.69
2018-09-26T09:47:09.949Z,13.72
2018-09-26T09:48:10.172Z,13.7
2018-09-26T09:49:09.964Z,13.69
2018-09-26T09:50:10.177Z,13.64
2018-09-26T09:51:10.208Z,13.64
2018-09-26T09:52:10.054Z,13.64
2018-09-26T09:53:09.782Z,13.69
2018-09-26T09:54:10.110Z,13.66
2018-09-26T09:55:10.099Z,13.69
2018-09-26T09:56:10.175Z,13.73
2018-09-26T09:57:10.233Z,13.7
2018-09-26T09:58:10.261Z,13.73
2018-09-26T09:59:10.144Z,13.69
2018-09-26T10:00:10.886Z,13.77
2018-09-26T10:01:09.948Z,13.84
2018-09-26T10:02:10.230Z,13.89
2018-09-26T10:03:10.529Z,13.94
2018-09-26T10:04:10.113Z,14.01
2018-09-26T10:05:09.931Z,14.08
2018-09-26T10:06:09.978Z,14.14
2018-09-26T10:07:10.027Z,14.17
2018-09-26T10:08:10.322Z,14.17
2018-09-26T10:09:10.230Z,14.27
2018-09-26T10:10:10.255Z,14.31
2018-09-26T10:11:09.925Z,14.38
2018-09-26T10:12:12.286Z,14.42
2018-09-26T10:13:10.017Z,14.45
2018-09-26T10:14:10.392Z,14.39
2018-09-26T10:15:10.155Z,14.39
2018-09-26T10:16:10.181Z,14.38
2018-09-26T10:17:09.751Z,14.12
2018-09-26T10:18:10.208Z,14.08
2018-09-26T10:19:09.807Z,14.15
2018-09-26T10:20:09.960Z,14.25
2018-09-26T10:21:09.945Z,14.29
2018-09-26T10:22:09.924Z,14.4
2018-09-26T10:23:10.137Z,14.48
2018-09-26T10:24:10.210Z,14.59
2018-09-26T10:25:10.378Z,14.62
2018-09-26T10:26:10.302Z,14.62
2018-09-26T10:27:10.157Z,14.67
2018-09-26T10:28:09.943Z,14.74
2018-09-26T10:29:09.872Z,14.73
2018-09-26T10:30:09.953Z,14.76
2018-09-26T10:31:09.946Z,14.74
2018-09-26T10:32:10.008Z,14.81
2018-09-26T10:33:10.196Z,14.86
2018-09-26T10:34:09.979Z,14.86
2018-09-26T10:35:10.023Z,14.92
2018-09-26T10:36:09.786Z,14.97
2018-09-26T10:37:10.133Z,15
2018-09-26T10:38:10.159Z,15.02
2018-09-26T10:39:10.120Z,15.01
2018-09-26T10:40:10.553Z,14.98
2018-09-26T10:41:09.750Z,15
2018-09-26T10:42:09.994Z,15.02
2018-09-26T10:43:10.023Z,15
2018-09-26T10:44:09.778Z,14.92
2018-09-26T10:45:10.260Z,14.9
2018-09-26T10:46:09.941Z,14.88
2018-09-26T10:47:09.856Z,14.87
2018-09-26T10:48:10.173Z,14.91
2018-09-26T10:49:10.052Z,14.95
2018-09-26T10:50:10.110Z,15.01
2018-09-26T10:51:10.420Z,15.07
2018-09-26T10:52:09.990Z,15.07
2018-09-26T10:53:09.712Z,15.04
2018-09-26T10:54:09.956Z,15
2018-09-26T10:55:09.779Z,15.05
2018-09-26T10:56:09.970Z,14.83
2018-09-26T10:57:10.055Z,14.76
2018-09-26T10:58:09.956Z,14.83
2018-09-26T10:59:09.997Z,14.77
2018-09-26T11:00:10.157Z,14.74
2018-09-26T11:01:09.880Z,14.83
2018-09-26T11:02:10.572Z,14.86
2018-09-26T11:03:10.196Z,14.8
2018-09-26T11:04:10.094Z,14.83
2018-09-26T11:05:09.842Z,14.94
2018-09-26T11:06:09.802Z,15.05
2018-09-26T11:07:09.678Z,15.15
2018-09-26T11:08:10.268Z,15.23
2018-09-26T11:09:10.180Z,15.36
2018-09-26T11:10:10.050Z,15.46
2018-09-26T11:11:09.919Z,15.53
2018-09-26T11:12:10.137Z,15.6
2018-09-26T11:13:09.956Z,15.66
2018-09-26T11:14:10.011Z,15.77
2018-09-26T11:15:10.085Z,15.81
2018-09-26T11:16:10.102Z,15.9
2018-09-26T11:17:09.958Z,15.95
2018-09-26T11:18:09.767Z,16.08
2018-09-26T11:19:09.879Z,16.08
2018-09-26T11:20:09.815Z,16.11
2018-09-26T11:21:09.940Z,16.04
2018-09-26T11:22:10.135Z,15.91
2018-09-26T11:23:09.681Z,15.7
2018-09-26T11:24:09.811Z,15.74
2018-09-26T11:25:09.914Z,15.82
2018-09-26T11:26:10.067Z,15.9
2018-09-26T11:27:10.312Z,15.97
2018-09-26T11:28:10.160Z,15.99
2018-09-26T11:29:09.826Z,16.07
2018-09-26T11:30:10.157Z,16.04
2018-09-26T11:31:09.864Z,16.05
2018-09-26T11:32:10.100Z,16.09
2018-09-26T11:33:10.051Z,16.14
2018-09-26T11:34:09.887Z,16.21
2018-09-26T11:35:09.721Z,16.22
2018-09-26T11:36:09.921Z,16.21
2018-09-26T11:37:10.132Z,16.26
2018-09-26T11:38:09.988Z,16.31
2018-09-26T11:39:09.973Z,16.36
2018-09-26T11:40:09.921Z,16.39
2018-09-26T11:41:09.730Z,16.42
2018-09-26T11:42:09.653Z,16.42
2018-09-26T11:43:10.144Z,16.43
2018-09-26T11:44:09.961Z,16.46
2018-09-26T11:45:09.923Z,16.5
2018-09-26T11:46:09.837Z,16.54
2018-09-26T11:47:09.926Z,16.49
2018-09-26T11:48:09.651Z,16.43
2018-09-26T11:49:09.809Z,16.25
2018-09-26T11:50:10.199Z,16.21
2018-09-26T11:51:09.807Z,16.19
2018-09-26T11:52:09.998Z,16.25
2018-09-26T11:53:09.774Z,16.35
2018-09-26T11:54:10.252Z,16.42
2018-09-26T11:55:09.817Z,16.5
2018-09-26T11:56:09.925Z,16.54
2018-09-26T11:57:09.935Z,16.6
2018-09-26T11:58:09.825Z,16.64
2018-09-26T11:59:09.889Z,16.68
2018-09-26T12:00:09.752Z,16.73
2018-09-26T12:01:09.761Z,16.73
2018-09-26T12:02:10.024Z,16.67
2018-09-26T12:03:10.106Z,16.56
2018-09-26T12:04:09.989Z,16.49
2018-09-26T12:05:10.111Z,16.53
2018-09-26T12:06:09.855Z,16.54
2018-09-26T12:08:10.036Z,16.56
2018-09-26T12:09:09.790Z,16.57
2018-09-26T12:10:10.199Z,16.57
2018-09-26T12:11:09.877Z,16.63
2018-09-26T12:12:09.824Z,16.64
2018-09-26T12:13:10.095Z,16.67
2018-09-26T12:14:09.864Z,16.71
2018-09-26T12:15:09.957Z,16.74
2018-09-26T12:16:09.759Z,16.8
2018-09-26T12:17:09.653Z,16.75
2018-09-26T12:18:09.742Z,16.77
2018-09-26T12:19:10.060Z,16.83
2018-09-26T12:20:09.876Z,16.86
2018-09-26T12:21:09.676Z,16.87
2018-09-26T12:22:10.051Z,16.91
2018-09-26T12:23:09.698Z,16.91
2018-09-26T12:24:09.787Z,16.94
2018-09-26T12:25:09.969Z,16.98
2018-09-26T12:26:10.045Z,16.99
2018-09-26T12:27:10.037Z,17.05
2018-09-26T12:28:10.723Z,17.08
2018-09-26T12:29:09.738Z,17.15
2018-09-26T12:30:10.024Z,17.14
2018-09-26T12:31:09.833Z,17.18
2018-09-26T12:32:09.872Z,17.18
2018-09-26T12:33:09.922Z,17.18
2018-09-26T12:34:10.376Z,17.19
2018-09-26T12:35:09.729Z,17.23
2018-09-26T12:36:09.720Z,17.25
2018-09-26T12:37:09.550Z,17.22
2018-09-26T12:38:09.717Z,17.19
2018-09-26T12:39:09.595Z,17.22
2018-09-26T12:40:10.250Z,17.23
2018-09-26T12:41:09.804Z,17.27
2018-09-26T12:42:10.002Z,17.3
2018-09-26T12:43:11.436Z,17.3
2018-09-26T12:44:09.730Z,17.35
2018-09-26T12:45:09.864Z,17.35
2018-09-26T12:46:09.889Z,17.32
2018-09-26T12:47:09.841Z,17.36
2018-09-26T12:48:10.008Z,17.37
2018-09-26T12:49:09.571Z,17.39
2018-09-26T12:50:09.575Z,17.4
2018-09-26T12:51:09.723Z,17.27
2018-09-26T12:52:10.355Z,17.27
2018-09-26T12:53:09.739Z,17.3
2018-09-26T12:54:09.704Z,17.27
2018-09-26T12:55:10.018Z,17.26
2018-09-26T12:56:10.078Z,17.26
2018-09-26T12:57:09.940Z,17.23
2018-09-26T12:58:09.691Z,17.26
2018-09-26T12:59:09.706Z,17.26
2018-09-26T13:00:09.916Z,17.22
2018-09-26T13:01:09.710Z,17.25
2018-09-26T13:02:09.943Z,17.27
2018-09-26T13:03:09.922Z,17.3
2018-09-26T13:04:10.059Z,17.33
2018-09-26T13:05:09.799Z,17.35
2018-09-26T13:06:09.824Z,17.4
2018-09-26T13:07:09.653Z,17.43
2018-09-26T13:08:10.174Z,17.49